Time;durP1;ratioP1;P1;durP2;ratioP2;P2;SDS_P1;SDS_P2;PMS_P1;PMS_P2;Temp;Humidity;BMP_temperature;BMP_pressure;BME280_temperature;BME280_humidity;BME280_pressure;Samples;Min_cycle;Max_cycle;Signal;HPM_P1;HPM_P2
2023/01/09 00:02:01;;;;;;;1.55;0.70;;;;;;;4.32;78.15;100088.16;4921660;29;20062;-77
2023/01/09 00:04:28;;;;;;;5.60;1.58;;;;;;;4.36;78.51;100089.91;4925522;29;20075;-74
2023/01/09 00:06:55;;;;;;;4.00;1.05;;;;;;;4.35;78.51;100091.59;4923583;29;20052;-75
2023/01/09 00:09:22;;;;;;;4.78;0.85;;;;;;;4.35;78.75;100094.19;4923474;29;20191;-76
2023/01/09 00:11:50;;;;;;;6.40;1.40;;;;;;;4.35;78.24;100083.84;4925481;29;20057;-75
2023/01/09 00:14:17;;;;;;;4.05;1.40;;;;;;;4.32;78.37;100083.00;4922113;29;20134;-75
2023/01/09 00:16:44;;;;;;;5.15;1.40;;;;;;;4.35;78.31;100076.06;4923851;29;20047;-75
2023/01/09 00:19:13;;;;;;;2.47;1.20;;;;;;;4.33;78.45;100069.22;4921556;29;20052;-75
2023/01/09 00:21:40;;;;;;;4.25;1.42;;;;;;;4.36;78.31;100082.13;4926257;29;20139;-75
2023/01/09 00:24:08;;;;;;;6.78;1.58;;;;;;;4.37;78.48;100081.25;4921028;29;20048;-76
2023/01/09 00:26:35;;;;;;;3.90;1.48;;;;;;;4.37;78.46;100081.25;4922196;29;20713;-76
2023/01/09 00:29:02;;;;;;;4.47;1.35;;;;;;;4.34;78.55;100076.97;4899898;29;20052;-76
2023/01/09 00:31:29;;;;;;;3.35;1.10;;;;;;;4.34;78.28;100073.53;4923397;29;20048;-76
2023/01/09 00:33:59;;;;;;;4.88;1.35;;;;;;;4.38;78.57;100081.22;4919088;29;20422;-75
2023/01/09 00:36:28;;;;;;;4.57;2.10;;;;;;;4.38;78.36;100072.63;4921460;29;20050;-75
2023/01/09 00:38:54;;;;;;;3.58;1.33;;;;;;;4.38;78.52;100072.63;4919977;29;20373;-75
2023/01/09 00:41:24;;;;;;;5.90;2.03;;;;;;;4.39;78.55;100069.19;4922317;29;20055;-75
2023/01/09 00:43:56;;;;;;;3.65;1.25;;;;;;;4.39;78.53;100079.53;4922080;29;20054;-75
2023/01/09 00:46:27;;;;;;;3.30;0.93;;;;;;;4.40;78.52;100073.50;4911284;29;20062;-75
2023/01/09 00:48:54;;;;;;;7.53;1.52;;;;;;;4.39;78.69;100067.47;4922833;29;20048;-78
2023/01/09 00:51:21;;;;;;;3.70;1.25;;;;;;;4.40;78.75;100076.06;4922644;29;20066;-75
2023/01/09 00:53:50;;;;;;;3.65;1.15;;;;;;;4.40;78.62;100068.31;4922963;29;20131;-75
2023/01/09 00:56:19;;;;;;;7.32;2.05;;;;;;;4.41;78.65;100067.44;4919456;29;20046;-75
2023/01/09 00:58:46;;;;;;;4.20;1.50;;;;;;;4.42;78.76;100064.00;4921176;29;20052;-75
2023/01/09 01:01:13;;;;;;;5.70;1.83;;;;;;;4.42;78.66;100057.09;4920972;29;20054;-75
2023/01/09 01:03:40;;;;;;;3.35;1.27;;;;;;;4.42;78.69;100057.09;4919279;29;20083;-76
2023/01/09 01:08:54;;;;;;;4.70;1.88;;;;;;;4.43;78.64;100055.38;4917149;29;20059;-75
2023/01/09 01:11:22;;;;;;;5.45;2.13;;;;;;;4.42;78.71;100051.94;4921127;29;20150;-75
2023/01/09 01:13:49;;;;;;;6.20;1.48;;;;;;;4.45;78.79;100058.81;4916388;29;20052;-75
2023/01/09 01:16:17;;;;;;;1.92;1.00;;;;;;;4.46;78.59;100060.53;4917800;29;20046;-75
2023/01/09 01:18:44;;;;;;;3.33;1.10;;;;;;;4.13;78.78;100005.53;4921300;29;20075;-75
2023/01/09 01:21:13;;;;;;;5.55;1.35;;;;;;;4.46;78.86;100050.19;4921069;29;20739;-76
2023/01/09 01:23:40;;;;;;;3.90;1.23;;;;;;;4.46;78.80;100052.75;4918025;29;20048;-76
2023/01/09 01:26:10;;;;;;;5.28;1.35;;;;;;;4.31;78.55;100021.81;4919531;29;20051;-75
2023/01/09 01:28:37;;;;;;;7.10;1.08;;;;;;;4.48;78.76;100053.63;4916935;29;20119;-76
2023/01/09 01:31:04;;;;;;;2.70;1.10;;;;;;;4.48;78.66;100049.31;4923298;29;20043;-76
2023/01/09 01:33:34;;;;;;;6.25;0.70;;;;;;;4.47;78.83;100047.59;4922789;29;20918;-75
2023/01/09 01:36:02;;;;;;;5.97;1.83;;;;;;;4.49;78.69;100057.91;4919988;29;20056;-75
2023/01/09 01:38:29;;;;;;;3.53;1.20;;;;;;;4.49;78.71;100055.34;4920589;29;20059;-75
2023/01/09 01:40:56;;;;;;;4.53;0.90;;;;;;;4.49;78.71;100051.00;4920395;29;20052;-75
2023/01/09 01:43:25;;;;;;;2.67;0.93;;;;;;;4.51;78.48;100054.47;4921087;29;20130;-75
2023/01/09 01:45:52;;;;;;;3.30;1.33;;;;;;;4.50;78.81;100051.91;4921942;29;20056;-75
2023/01/09 01:48:23;;;;;;;4.65;0.90;;;;;;;4.51;78.65;100051.03;4923534;29;20052;-76
2023/01/09 01:50:53;;;;;;;3.20;1.33;;;;;;;4.53;78.67;100049.28;4922530;29;20062;-76
2023/01/09 01:53:24;;;;;;;3.58;1.13;;;;;;;4.45;78.84;100035.53;4917921;29;20055;-76
2023/01/09 01:56:07;;;;;;;3.83;1.42;;;;;;;4.45;78.77;100036.38;4924276;29;20051;-76
2023/01/09 01:58:42;;;;;;;2.33;0.88;;;;;;;4.53;78.49;100041.53;4920817;29;20052;-76
2023/01/09 02:01:09;;;;;;;3.70;0.90;;;;;;;4.56;78.80;100049.28;4922649;29;20413;-75
2023/01/09 02:03:39;;;;;;;3.60;1.40;;;;;;;4.56;78.93;100045.84;4920702;29;20073;-75
2023/01/09 02:06:06;;;;;;;2.13;1.02;;;;;;;4.57;78.62;100045.81;4919328;29;20075;-75
2023/01/09 02:08:34;;;;;;;4.63;1.30;;;;;;;4.57;78.91;100038.03;4921836;28;20595;-75
2023/01/09 02:11:02;;;;;;;2.58;1.42;;;;;;;4.59;78.93;100036.31;4925102;29;20047;-75
2023/01/09 02:13:30;;;;;;;2.30;1.25;;;;;;;4.59;78.81;100031.16;4923629;29;20502;-75
2023/01/09 02:16:09;;;;;;;4.50;1.75;;;;;;;4.60;78.99;100027.69;4924204;29;21342;-75
2023/01/09 02:18:50;;;;;;;2.72;1.05;;;;;;;4.61;78.83;100032.00;4924521;29;20055;-76
2023/01/09 02:21:24;;;;;;;1.85;1.17;;;;;;;4.61;78.84;100033.72;4923367;29;20095;-75
2023/01/09 02:24:26;;;;;;;1.77;1.33;;;;;;;4.62;78.79;100030.28;4923908;29;20044;-76
2023/01/09 02:27:02;;;;;;;4.00;1.88;;;;;;;4.62;79.02;100028.53;4921142;29;20525;-75
2023/01/09 02:30:07;;;;;;;2.80;1.42;;;;;;;4.61;78.80;100026.84;4922683;29;20066;-76
2023/01/09 02:32:45;;;;;;;2.15;1.20;;;;;;;4.60;79.04;100027.69;4924627;29;20044;-76
2023/01/09 02:35:27;;;;;;;2.53;1.40;;;;;;;4.58;78.84;100019.09;4924368;29;20056;-76
2023/01/09 02:38:02;;;;;;;2.88;1.17;;;;;;;4.53;78.97;100005.31;4924516;29;20060;-76
2023/01/09 02:40:38;;;;;;;2.38;1.58;;;;;;;4.62;78.71;100020.78;4922415;29;20053;-76
2023/01/09 02:43:07;;;;;;;4.13;2.00;;;;;;;4.57;78.92;100012.19;4926034;29;20051;-75
2023/01/09 02:45:34;;;;;;;2.55;1.33;;;;;;;4.67;78.94;100028.53;4923647;29;20058;-76
2023/01/09 02:48:02;;;;;;;4.38;1.98;;;;;;;4.68;78.76;100031.09;4922518;29;20694;-75
2023/01/09 02:50:39;;;;;;;2.88;1.77;;;;;;;4.67;79.35;100026.78;4921150;29;20048;-78
2023/01/09 02:53:32;;;;;;;3.53;1.92;;;;;;;4.68;78.90;100031.09;4923344;29;20418;-76
2023/01/09 02:56:19;;;;;;;4.60;2.08;;;;;;;4.71;78.91;100031.06;4922100;29;20047;-76
2023/01/09 02:59:05;;;;;;;4.72;2.38;;;;;;;4.71;78.86;100036.22;4923242;29;20048;-76
2023/01/09 03:01:43;;;;;;;5.03;2.78;;;;;;;4.73;78.91;100034.50;4921712;29;20067;-75
2023/01/09 03:04:20;;;;;;;5.90;2.90;;;;;;;4.71;79.05;100031.06;4924211;29;20048;-75
2023/01/09 03:06:55;;;;;;;6.38;2.90;;;;;;;4.74;79.12;100033.63;4924161;29;20044;-75
2023/01/09 03:09:27;;;;;;;9.85;3.83;;;;;;;4.77;79.21;100037.06;4924266;29;20056;-76
2023/01/09 03:11:59;;;;;;;8.15;3.25;;;;;;;4.77;79.11;100042.25;4920503;29;20055;-75
2023/01/09 03:14:27;;;;;;;8.13;3.30;;;;;;;4.78;78.71;100036.19;4920995;29;20051;-76
2023/01/09 03:16:59;;;;;;;7.82;3.78;;;;;;;4.67;79.04;100019.03;4920948;29;20093;-76
2023/01/09 03:19:31;;;;;;;5.88;3.13;;;;;;;4.79;79.06;100043.97;4920512;29;20047;-75
2023/01/09 03:21:59;;;;;;;7.07;3.50;;;;;;;4.79;78.83;100033.59;4921154;29;20051;-76
2023/01/09 03:24:26;;;;;;;10.20;3.78;;;;;;;4.69;78.87;100016.41;4925810;29;20224;-75
2023/01/09 03:26:54;;;;;;;6.97;3.33;;;;;;;4.81;79.18;100038.75;4916645;29;20054;-75
2023/01/09 03:29:21;;;;;;;7.25;3.30;;;;;;;4.74;78.76;100025.88;4923292;29;20475;-69
2023/01/09 03:31:48;;;;;;;9.13;3.90;;;;;;;4.82;78.85;100037.91;4922406;29;20056;-68
2023/01/09 03:34:15;;;;;;;10.50;4.43;;;;;;;4.84;78.98;100033.56;4924445;29;20058;-70
2023/01/09 03:36:43;;;;;;;6.68;3.67;;;;;;;4.77;78.92;100018.97;4918648;29;20073;-70
2023/01/09 03:39:10;;;;;;;7.60;3.90;;;;;;;4.84;78.97;100036.13;4919382;29;20135;-70
2023/01/09 03:41:37;;;;;;;11.68;3.90;;;;;;;4.84;79.15;100033.56;4919915;29;20047;-70
2023/01/09 03:44:04;;;;;;;11.73;5.10;;;;;;;4.84;79.02;100031.84;4924973;29;20058;-70
2023/01/09 03:46:30;;;;;;;10.57;4.88;;;;;;;4.82;79.25;100027.56;4920368;29;20487;-70
2023/01/09 03:48:58;;;;;;;9.50;3.75;;;;;;;4.84;78.74;100023.19;4924098;29;20050;-70
2023/01/09 03:51:24;;;;;;;13.32;5.38;;;;;;;4.86;78.79;100031.81;4922600;29;20417;-70
2023/01/09 03:53:53;;;;;;;10.25;3.83;;;;;;;4.85;79.01;100028.38;4924505;29;20497;-70
2023/01/09 03:56:20;;;;;;;12.30;5.30;;;;;;;4.76;78.91;100014.66;4918566;29;20411;-70
2023/01/09 03:58:48;;;;;;;17.05;4.35;;;;;;;4.88;79.00;100032.69;4921964;29;20048;-71
2023/01/09 04:01:16;;;;;;;32.85;6.18;;;;;;;4.77;78.97;100018.97;4923307;29;20047;-71
2023/01/09 04:03:42;;;;;;;11.55;4.50;;;;;;;4.87;79.00;100034.41;4920820;29;20048;-70
2023/01/09 04:06:09;;;;;;;10.75;4.70;;;;;;;4.63;78.81;99996.63;4926292;29;20425;-70
2023/01/09 04:08:36;;;;;;;18.33;4.38;;;;;;;4.82;78.91;100024.97;4921022;29;20498;-70
2023/01/09 04:11:05;;;;;;;10.88;4.60;;;;;;;4.91;78.78;100043.88;4924618;29;20136;-71
2023/01/09 04:13:31;;;;;;;8.13;4.25;;;;;;;4.92;78.82;100049.88;4924301;29;20046;-71
2023/01/09 04:15:58;;;;;;;8.95;4.15;;;;;;;4.93;78.69;100046.44;4918232;29;20066;-70
2023/01/09 04:18:25;;;;;;;10.93;4.43;;;;;;;4.93;78.90;100047.31;4922253;29;20062;-71
2023/01/09 04:20:52;;;;;;;11.02;3.97;;;;;;;4.94;78.97;100045.56;4919868;29;20055;-70
2023/01/09 04:23:19;;;;;;;12.60;5.38;;;;;;;4.96;78.86;100046.44;4920862;29;20048;-70
2023/01/09 04:25:46;;;;;;;10.90;4.80;;;;;;;4.96;78.84;100047.28;4921649;29;20047;-70
2023/01/09 04:28:14;;;;;;;36.20;6.00;;;;;;;4.86;79.15;100026.66;4923716;29;20048;-70
2023/01/09 04:30:41;;;;;;;19.08;4.85;;;;;;;4.97;78.72;100042.97;4920786;29;20056;-70
2023/01/09 04:33:08;;;;;;;10.52;4.40;;;;;;;4.98;78.84;100049.88;4924827;29;20043;-70
2023/01/09 04:35:35;;;;;;;20.35;5.35;;;;;;;4.98;78.73;100039.53;4904438;29;20056;-70
2023/01/09 04:38:02;;;;;;;22.48;6.25;;;;;;;4.99;78.98;100043.81;4923990;29;20060;-71
2023/01/09 04:40:29;;;;;;;14.07;5.72;;;;;;;4.99;78.63;100036.06;4924752;29;20636;-70
2023/01/09 04:42:56;;;;;;;10.88;4.60;;;;;;;4.99;78.72;100028.28;4924093;29;20052;-70
2023/01/09 04:45:24;;;;;;;11.95;5.13;;;;;;;5.00;78.82;100039.50;4923458;29;20150;-70
2023/01/09 04:47:51;;;;;;;13.55;4.97;;;;;;;4.96;78.71;100023.13;4923556;29;20086;-71
2023/01/09 04:50:18;;;;;;;10.10;5.07;;;;;;;4.95;78.67;100035.22;4927323;29;20055;-70
2023/01/09 04:52:45;;;;;;;15.27;5.78;;;;;;;5.01;78.76;100039.50;4919967;29;20048;-70
2023/01/09 04:55:11;;;;;;;22.73;6.63;;;;;;;5.01;78.86;100033.44;4926157;29;20418;-70
2023/01/09 04:57:38;;;;;;;17.42;5.63;;;;;;;5.01;78.62;100039.50;4921540;29;20044;-70
2023/01/09 05:00:10;;;;;;;52.25;7.18;;;;;;;4.98;78.72;100034.34;4922196;29;20581;-70
2023/01/09 05:02:39;;;;;;;12.85;5.60;;;;;;;5.01;78.69;100044.66;4927011;29;20051;-71
2023/01/09 05:05:07;;;;;;;22.40;6.18;;;;;;;5.01;78.54;100049.84;4924469;29;20516;-70
2023/01/09 05:07:34;;;;;;;32.58;6.68;;;;;;;5.01;78.67;100043.78;4920632;29;20131;-70
2023/01/09 05:10:02;;;;;;;22.70;6.72;;;;;;;5.01;78.63;100044.66;4927112;29;20062;-70
2023/01/09 05:12:29;;;;;;;26.25;7.68;;;;;;;5.02;78.76;100038.63;4925399;29;20058;-70
2023/01/09 05:14:56;;;;;;;16.33;5.75;;;;;;;4.99;78.66;100036.06;4920770;29;20524;-70
2023/01/09 05:17:23;;;;;;;14.50;5.88;;;;;;;5.04;78.62;100039.47;4927645;29;20110;-70
2023/01/09 05:19:52;;;;;;;17.58;6.00;;;;;;;5.03;78.65;100047.22;4923490;28;20054;-70
2023/01/09 05:22:18;;;;;;;21.17;6.53;;;;;;;5.03;78.57;100037.72;4925825;29;20043;-71
2023/01/09 05:24:45;;;;;;;32.63;6.18;;;;;;;5.04;78.49;100041.16;4923416;29;20126;-71
2023/01/09 05:27:12;;;;;;;22.63;6.43;;;;;;;4.98;78.50;100036.94;4926239;29;20059;-70
2023/01/09 05:29:39;;;;;;;32.35;8.38;;;;;;;5.04;78.54;100038.59;4924907;29;20082;-70
2023/01/09 05:32:06;;;;;;;39.15;7.65;;;;;;;5.04;78.78;100039.47;4922185;29;20048;-70
2023/01/09 05:34:33;;;;;;;47.08;7.60;;;;;;;5.04;78.66;100036.88;4922426;29;20055;-70
2023/01/09 05:37:02;;;;;;;18.17;6.55;;;;;;;5.05;78.66;100046.34;4924870;29;20581;-71
2023/01/09 05:39:28;;;;;;;24.00;6.78;;;;;;;5.05;78.76;100046.34;4924230;29;20047;-70
2023/01/09 05:41:55;;;;;;;16.92;6.80;;;;;;;5.02;78.53;100040.34;4926119;29;20055;-71
2023/01/09 05:44:22;;;;;;;26.35;7.10;;;;;;;5.02;78.73;100046.38;4922821;29;20062;-70
2023/01/09 05:46:49;;;;;;;31.80;7.78;;;;;;;5.04;78.93;100043.75;4925908;29;20052;-71
2023/01/09 05:49:16;;;;;;;25.90;7.15;;;;;;;5.04;78.72;100055.00;4922233;29;20048;-71
2023/01/09 05:51:43;;;;;;;15.02;5.78;;;;;;;5.03;78.48;100058.44;4925695;29;20062;-70
2023/01/09 05:54:11;;;;;;;15.98;6.75;;;;;;;5.00;78.76;100052.44;4926322;29;20051;-71
2023/01/09 05:56:38;;;;;;;22.60;6.03;;;;;;;5.03;78.96;100063.63;4928185;29;20584;-71
2023/01/09 05:59:05;;;;;;;48.20;8.00;;;;;;;5.04;78.59;100065.34;4923353;29;20522;-70
2023/01/09 06:01:31;;;;;;;21.75;6.25;;;;;;;5.05;78.56;100067.06;4925088;29;20414;-70
2023/01/09 06:03:58;;;;;;;16.52;6.63;;;;;;;5.06;78.70;100071.34;4926212;29;20054;-71
2023/01/09 06:06:25;;;;;;;17.77;6.97;;;;;;;5.06;78.64;100060.16;4922747;29;20062;-71
2023/01/09 06:08:52;;;;;;;39.47;7.82;;;;;;;5.06;78.71;100065.31;4927539;29;20751;-70
2023/01/09 06:11:20;;;;;;;44.97;7.18;;;;;;;5.04;78.81;100059.28;4926691;29;20126;-71
2023/01/09 06:13:47;;;;;;;33.65;8.05;;;;;;;5.07;78.78;100061.88;4914377;29;20050;-70
2023/01/09 06:16:14;;;;;;;28.35;7.45;;;;;;;5.06;78.73;100058.41;4926615;29;20055;-71
2023/01/09 06:18:41;;;;;;;20.38;7.20;;;;;;;5.07;78.66;100060.16;4924497;29;20046;-71
2023/01/09 06:21:08;;;;;;;18.45;6.43;;;;;;;5.08;78.69;100069.63;4927163;29;20046;-71
2023/01/09 06:23:35;;;;;;;22.08;6.78;;;;;;;5.08;78.66;100064.44;4928093;29;20504;-70
2023/01/09 06:26:01;;;;;;;30.92;7.05;;;;;;;5.08;78.78;100067.03;4926690;29;20057;-71
2023/01/09 06:28:30;;;;;;;35.45;6.28;;;;;;;5.10;78.72;100067.03;4926064;28;20048;-71
2023/01/09 06:30:57;;;;;;;59.92;8.43;;;;;;;5.09;79.02;100060.97;4922469;29;20051;-70
2023/01/09 06:33:24;;;;;;;22.05;5.90;;;;;;;5.10;78.77;100065.31;4922573;29;20134;-70
2023/01/09 06:35:51;;;;;;;14.73;6.22;;;;;;;5.10;78.88;100061.88;4929097;29;20048;-70
2023/01/09 06:38:18;;;;;;;11.30;5.47;;;;;;;5.10;78.56;100064.44;4928017;29;20055;-70
2023/01/09 06:40:44;;;;;;;18.42;5.47;;;;;;;5.10;78.72;100073.06;4922793;29;20143;-70
2023/01/09 06:43:11;;;;;;;15.25;6.05;;;;;;;5.11;78.69;100077.38;4927039;29;20074;-70
2023/01/09 06:45:40;;;;;;;22.08;5.95;;;;;;;5.10;78.73;100075.66;4926950;29;20447;-70
2023/01/09 06:48:07;;;;;;;25.42;7.15;;;;;;;5.09;78.52;100073.06;4923800;29;20577;-71
2023/01/09 06:50:34;;;;;;;38.58;6.57;;;;;;;5.11;78.66;100079.09;4925663;29;20436;-71
2023/01/09 06:53:00;;;;;;;18.77;6.30;;;;;;;5.11;78.70;100077.38;4922007;29;20524;-71
2023/01/09 06:55:27;;;;;;;13.82;5.38;;;;;;;5.08;78.78;100074.81;4923181;29;20061;-70
2023/01/09 06:57:54;;;;;;;16.08;6.63;;;;;;;5.12;78.61;100079.09;4919112;29;20140;-70
2023/01/09 07:00:21;;;;;;;50.05;6.45;;;;;;;5.05;78.47;100072.25;4924055;29;20051;-70
2023/01/09 07:02:50;;;;;;;15.32;5.05;;;;;;;5.13;78.66;100074.78;4922936;29;20065;-71
2023/01/09 07:05:17;;;;;;;22.25;6.13;;;;;;;5.13;78.73;100082.53;4922838;29;20047;-70
2023/01/09 07:07:43;;;;;;;14.73;5.15;;;;;;;5.13;78.56;100079.97;4921617;29;20143;-71
2023/01/09 07:10:11;;;;;;;12.80;4.72;;;;;;;5.11;78.54;100077.38;4923848;29;20044;-71
2023/01/09 07:12:38;;;;;;;22.90;5.80;;;;;;;5.13;78.62;100085.13;4920084;29;20091;-70
2023/01/09 07:15:06;;;;;;;23.95;6.45;;;;;;;5.13;78.61;100087.72;4918521;29;20048;-71
2023/01/09 07:17:33;;;;;;;17.13;5.57;;;;;;;5.12;78.42;100089.47;4922802;29;20047;-71
2023/01/09 07:20:01;;;;;;;26.42;5.38;;;;;;;5.12;78.48;100099.81;4921881;29;20055;-70
2023/01/09 07:22:28;;;;;;;21.10;6.38;;;;;;;5.12;78.45;100110.16;4924119;29;20048;-71
2023/01/09 07:24:55;;;;;;;13.88;5.53;;;;;;;5.13;78.46;100101.53;4923880;29;20147;-70
2023/01/09 07:27:22;;;;;;;22.25;6.57;;;;;;;5.14;78.75;100102.38;4917513;29;20418;-70
2023/01/09 07:29:50;;;;;;;18.70;5.68;;;;;;;5.14;78.62;100107.56;4923547;29;20047;-71
2023/01/09 07:32:17;;;;;;;23.35;6.43;;;;;;;5.10;78.57;100104.13;4920899;29;20112;-71
2023/01/09 07:34:44;;;;;;;18.27;5.97;;;;;;;5.15;78.57;100117.03;4922603;29;20060;-71
2023/01/09 07:37:12;;;;;;;15.30;5.95;;;;;;;5.15;78.53;100119.63;4921811;29;20066;-71
2023/01/09 07:39:39;;;;;;;32.47;6.65;;;;;;;5.14;78.65;100113.59;4924197;29;20358;-70
2023/01/09 07:42:05;;;;;;;13.57;5.38;;;;;;;5.15;78.69;100125.69;4918776;29;20501;-71
2023/01/09 07:44:33;;;;;;;27.88;6.72;;;;;;;5.15;78.12;100123.09;4921518;29;20052;-71
2023/01/09 07:47:00;;;;;;;12.88;6.57;;;;;;;5.16;78.56;100126.53;4925736;29;20072;-71
2023/01/09 07:49:27;;;;;;;21.50;6.07;;;;;;;5.16;78.66;100140.34;4923692;29;20054;-71
2023/01/09 07:51:54;;;;;;;29.27;5.97;;;;;;;5.15;78.38;100136.03;4925995;29;20151;-71
2023/01/09 07:54:23;;;;;;;18.92;5.72;;;;;;;5.07;78.58;100122.28;4926002;28;20498;-71
2023/01/09 07:56:49;;;;;;;23.52;6.95;;;;;;;5.17;78.69;100141.19;4921671;29;20040;-72
2023/01/09 07:59:16;;;;;;;14.23;5.57;;;;;;;5.15;78.59;100137.75;4923092;29;20051;-71
2023/01/09 08:01:43;;;;;;;18.75;6.22;;;;;;;5.17;78.64;100138.59;4923486;29;20055;-71
2023/01/09 08:04:10;;;;;;;27.48;7.05;;;;;;;5.16;78.55;100145.50;4920128;29;20044;-70
2023/01/09 08:06:37;;;;;;;48.97;7.15;;;;;;;5.18;78.64;100143.78;4922590;29;20139;-70
2023/01/09 08:09:04;;;;;;;21.60;6.00;;;;;;;5.18;78.63;100143.78;4925609;29;20155;-70
2023/01/09 08:11:32;;;;;;;17.02;5.82;;;;;;;5.10;78.51;100132.63;4925868;29;20056;-70
2023/01/09 08:13:59;;;;;;;22.63;6.03;;;;;;;5.16;78.52;100142.91;4924125;29;20050;-70
2023/01/09 08:16:26;;;;;;;21.92;5.78;;;;;;;5.18;78.61;100141.19;4924342;29;20056;-70
2023/01/09 08:18:53;;;;;;;27.63;6.25;;;;;;;5.18;78.45;100141.19;4923028;29;20047;-70
2023/01/09 08:21:20;;;;;;;29.83;6.22;;;;;;;5.18;78.50;100136.00;4925338;29;20052;-70
2023/01/09 08:23:46;;;;;;;20.92;5.93;;;;;;;5.16;78.74;100137.75;4925300;29;20055;-70
2023/01/09 08:26:13;;;;;;;11.30;5.65;;;;;;;5.16;78.46;100140.34;4925532;29;20048;-70
2023/01/09 08:28:41;;;;;;;15.45;5.32;;;;;;;5.18;78.45;100137.75;4925017;29;20073;-70
2023/01/09 08:31:08;;;;;;;12.38;5.78;;;;;;;5.16;78.38;100145.50;4926909;29;20048;-70
2023/01/09 08:33:35;;;;;;;16.08;6.35;;;;;;;5.15;78.28;100148.97;4926453;29;20079;-70
2023/01/09 08:36:02;;;;;;;23.73;6.80;;;;;;;5.11;78.49;100143.81;4926175;29;20054;-70
2023/01/09 08:38:29;;;;;;;20.27;6.82;;;;;;;5.07;78.32;100148.16;4920308;29;20069;-70
2023/01/09 08:40:56;;;;;;;23.65;6.28;;;;;;;5.13;78.28;100161.06;4927954;29;20138;-70
2023/01/09 08:49:01;;;;;;;27.17;7.60;;;;;;;5.08;78.41;100165.41;4925391;29;20054;-70
2023/01/09 08:51:28;;;;;;;40.67;6.70;;;;;;;5.12;78.35;100166.25;4925506;29;20048;-70
2023/01/09 08:53:55;;;;;;;28.50;6.75;;;;;;;5.08;78.30;100168.00;4924348;29;20050;-70
2023/01/09 08:56:22;;;;;;;32.70;6.75;;;;;;;5.11;78.43;100175.75;4927701;29;20415;-70
2023/01/09 08:58:49;;;;;;;16.17;6.22;;;;;;;5.11;78.44;100172.31;4923533;29;20718;-70
2023/01/09 09:01:17;;;;;;;12.68;5.13;;;;;;;5.11;78.26;100174.88;4923267;29;20047;-70
2023/01/09 09:03:44;;;;;;;21.27;5.10;;;;;;;5.11;78.16;100173.16;4924872;29;20044;-70
2023/01/09 09:06:11;;;;;;;31.05;5.93;;;;;;;5.11;78.38;100167.13;4926728;29;20399;-70
2023/01/09 09:08:37;;;;;;;22.40;5.63;;;;;;;5.11;78.40;100165.38;4923258;29;20057;-70
2023/01/09 09:11:04;;;;;;;13.23;5.63;;;;;;;5.13;78.40;100171.44;4922010;29;20051;-74
2023/01/09 09:13:31;;;;;;;19.58;5.65;;;;;;;5.13;78.01;100166.25;4922107;29;20054;-71
2023/01/09 09:15:58;;;;;;;13.98;6.32;;;;;;;5.13;78.25;100168.84;4924806;29;20422;-73
2023/01/09 09:18:26;;;;;;;17.50;6.20;;;;;;;5.14;78.18;100178.31;4923688;29;20421;-73
2023/01/09 09:20:53;;;;;;;18.98;6.55;;;;;;;5.13;78.07;100176.59;4922983;29;20051;-73
2023/01/09 09:23:21;;;;;;;37.90;6.88;;;;;;;5.13;78.16;100179.19;4923787;29;20059;-73
2023/01/09 09:25:48;;;;;;;27.17;5.75;;;;;;;5.07;78.44;100163.69;4925776;29;20143;-74
2023/01/09 09:28:15;;;;;;;28.50;6.63;;;;;;;5.14;78.34;100170.53;4925103;29;20051;-74
2023/01/09 09:30:42;;;;;;;60.90;7.13;;;;;;;5.15;78.45;100171.41;4920838;29;20055;-74
2023/01/09 09:33:09;;;;;;;35.10;6.20;;;;;;;5.12;78.47;100167.13;4923801;29;20051;-73
2023/01/09 09:35:37;;;;;;;37.85;6.13;;;;;;;5.15;78.25;100168.81;4923904;29;20051;-74
2023/01/09 09:38:05;;;;;;;37.08;7.00;;;;;;;5.15;78.60;100174.88;4922802;29;20066;-73
2023/01/09 09:40:55;;;;;;;30.90;5.97;;;;;;;5.15;78.36;100174.88;4924394;29;20056;-74
2023/01/09 09:46:30;;;;;;;9.45;4.95;;;;;;;5.15;78.39;100172.28;4920301;29;20054;-73
2023/01/09 09:49:02;;;;;;;12.52;5.88;;;;;;;5.15;78.19;100173.97;4921519;29;20052;-74
2023/01/09 09:51:47;;;;;;;18.60;5.72;;;;;;;5.15;78.45;100180.06;4922805;29;20131;-69
2023/01/09 09:54:19;;;;;;;27.35;5.80;;;;;;;5.15;78.43;100171.41;4920722;29;20051;-69
2023/01/09 09:56:52;;;;;;;14.30;5.93;;;;;;;5.05;78.27;100155.06;4921867;29;20053;-74
2023/01/09 09:59:22;;;;;;;18.02;5.47;;;;;;;5.14;78.33;100170.53;4921460;29;20511;-74
2023/01/09 10:01:55;;;;;;;22.70;6.57;;;;;;;5.13;78.45;100168.84;4921668;29;20055;-74
2023/01/09 10:04:25;;;;;;;16.08;5.55;;;;;;;5.15;78.47;100172.28;4921976;29;20063;-73
2023/01/09 10:06:58;;;;;;;17.48;5.82;;;;;;;5.11;78.50;100167.13;4918912;29;20859;-74
2023/01/09 10:09:37;;;;;;;25.20;6.30;;;;;;;5.15;78.37;100177.47;4920836;29;20511;-73
2023/01/09 10:12:15;;;;;;;19.88;5.85;;;;;;;5.14;78.49;100180.03;4924086;29;20044;-74
2023/01/09 10:14:42;;;;;;;23.30;6.65;;;;;;;5.02;78.33;100155.09;4923674;29;20048;-73
2023/01/09 10:17:38;;;;;;;18.33;5.07;;;;;;;5.16;78.26;100181.75;4923226;29;20069;-71
2023/01/09 10:20:31;;;;;;;10.45;4.72;;;;;;;5.07;78.11;100166.28;4924017;29;20047;-72
2023/01/09 10:23:09;;;;;;;22.80;5.05;;;;;;;5.14;78.21;100180.91;4922634;29;20142;-71
2023/01/09 10:25:45;;;;;;;21.13;6.32;;;;;;;5.12;78.25;100169.72;4921850;29;20054;-69
2023/01/09 10:28:26;;;;;;;12.57;3.92;;;;;;;5.12;78.21;100156.78;4917451;29;20083;-71
2023/01/09 10:30:59;;;;;;;17.08;5.10;;;;;;;5.13;78.18;100162.81;4923358;29;20047;-71
2023/01/09 10:33:42;;;;;;;16.17;4.47;;;;;;;5.12;78.39;100153.28;4915705;29;20051;-72
2023/01/09 10:36:36;;;;;;;12.93;4.63;;;;;;;5.10;78.50;100155.06;4921319;29;20134;-73
2023/01/09 10:39:11;;;;;;;17.15;4.85;;;;;;;5.07;78.56;100161.09;4918047;29;20520;-71
2023/01/09 10:41:42;;;;;;;24.65;5.57;;;;;;;5.10;78.33;100157.66;4920205;29;20048;-72
2023/01/09 10:44:17;;;;;;;40.53;5.80;;;;;;;5.10;78.37;100161.09;4920203;29;20494;-73
2023/01/09 10:46:49;;;;;;;54.60;5.93;;;;;;;5.10;78.33;100158.50;4920456;29;20456;-71
2023/01/09 10:49:17;;;;;;;59.40;5.80;;;;;;;5.08;78.44;100160.22;4922357;29;20502;-71
2023/01/09 10:51:48;;;;;;;71.70;6.45;;;;;;;5.09;78.46;100163.66;4922964;29;20047;-70
2023/01/09 10:54:20;;;;;;;22.02;4.22;;;;;;;5.08;78.43;100175.75;4923036;29;20055;-70
2023/01/09 10:56:54;;;;;;;45.33;5.55;;;;;;;5.10;78.39;100181.81;4921243;29;20051;-70
2023/01/09 10:59:22;;;;;;;27.20;5.67;;;;;;;5.07;78.54;100174.06;4924456;29;20048;-70
2023/01/09 11:01:49;;;;;;;15.90;4.43;;;;;;;5.07;78.56;100174.06;4920167;29;20299;-72
2023/01/09 11:04:24;;;;;;;18.45;3.72;;;;;;;5.05;78.60;100162.84;4922525;29;20051;-71
2023/01/09 11:06:55;;;;;;;25.27;4.25;;;;;;;5.06;78.70;100164.53;4919875;29;20054;-72
2023/01/09 11:09:24;;;;;;;29.42;4.05;;;;;;;5.06;78.64;100168.88;4921129;29;20050;-71
2023/01/09 11:11:51;;;;;;;19.45;4.28;;;;;;;5.04;78.78;100163.72;4919397;29;20047;-70
2023/01/09 11:14:27;;;;;;;10.35;3.33;;;;;;;5.04;78.66;100165.41;4918073;29;20056;-69
2023/01/09 11:16:55;;;;;;;8.60;3.05;;;;;;;5.04;78.79;100163.72;4916492;29;20078;-70
2023/01/09 11:19:23;;;;;;;42.25;4.45;;;;;;;4.96;78.49;100147.38;4921345;29;20061;-73
2023/01/09 11:22:05;;;;;;;31.25;4.65;;;;;;;5.04;78.78;100161.13;4917087;29;20051;-71
2023/01/09 11:24:33;;;;;;;6.97;2.55;;;;;;;5.04;79.14;100157.66;4921162;29;20162;-72
2023/01/09 11:27:30;;;;;;;10.60;3.22;;;;;;;5.04;78.84;100155.94;4920352;29;20047;-72
2023/01/09 11:30:15;;;;;;;9.05;3.08;;;;;;;5.03;79.01;100164.56;4905728;29;20056;-72
2023/01/09 11:32:43;;;;;;;12.25;4.63;;;;;;;5.03;78.74;100166.31;4918705;29;20051;-72
2023/01/09 11:35:18;;;;;;;11.00;4.25;;;;;;;5.03;78.82;100182.69;4921981;29;20152;-69
2023/01/09 11:37:46;;;;;;;;;;;;;;;5.03;78.69;100182.69;4918060;29;20510;-69
2023/01/09 11:40:20;;;;;;;8.55;4.70;;;;;;;5.05;78.88;100187.88;4920458;29;19933;-70
2023/01/09 11:43:11;;;;;;;16.55;5.00;;;;;;;4.96;78.42;100168.94;4923671;29;20140;-70
2023/01/09 11:45:45;;;;;;;12.77;4.60;;;;;;;5.05;78.91;100183.53;4922686;29;20071;-69
2023/01/09 11:48:28;;;;;;;13.13;5.05;;;;;;;5.06;78.84;100185.25;4924144;29;20059;-70
2023/01/09 11:50:57;;;;;;;21.75;5.18;;;;;;;5.07;78.79;100179.22;4923879;29;20058;-69
2023/01/09 11:53:25;;;;;;;16.30;5.20;;;;;;;5.02;78.76;100175.81;4922654;29;20532;-70